Time;durP1;ratioP1;P1;durP2;ratioP2;P2;SDS_P1;SDS_P2;PMS_P1;PMS_P2;Temp;Humidity;BMP_temperature;BMP_pressure;BME280_temperature;BME280_humidity;BME280_pressure;Samples;Min_cycle;Max_cycle;Signal;HPM_P1;HPM_P2
2021/12/01 00:01:11;;;;;;;34.33;15.90;;;;;;;;;;4845706;29;20457;-80
2021/12/01 00:03:40;;;;;;;33.50;15.32;;;;;;;;;;4860736;29;20037;-83
2021/12/01 00:06:06;;;;;;;34.00;15.60;;;;;;;;;;4860882;29;20458;-82
2021/12/01 00:08:34;;;;;;;35.28;16.23;;;;;;;;;;4845336;29;20061;-80
2021/12/01 00:11:00;;;;;;;36.20;16.05;;;;;;;;;;4845096;29;20045;-82
2021/12/01 00:13:28;;;;;;;35.10;15.88;;;;;;;;;;4860598;29;20049;-81
2021/12/01 00:15:55;;;;;;;32.50;17.00;;;;;;;;;;4861210;29;20053;-81
2021/12/01 00:18:21;;;;;;;39.13;18.45;;;;;;;;;;4845086;29;20343;-80
2021/12/01 00:20:48;;;;;;;38.75;18.55;;;;;;;;;;4854770;29;20178;-82
2021/12/01 00:23:14;;;;;;;35.33;18.83;;;;;;;;;;4842612;29;20118;-80
2021/12/01 00:25:42;;;;;;;38.83;18.17;;;;;;;;;;4842860;29;20053;-81
2021/12/01 00:28:09;;;;;;;39.17;18.27;;;;;;;;;;4863682;29;20042;-81
2021/12/01 00:30:35;;;;;;;35.25;16.77;;;;;;;;;;4845031;29;20053;-82
2021/12/01 00:33:01;;;;;;;33.28;17.02;;;;;;;;;;4860642;29;20041;-82
2021/12/01 00:35:27;;;;;;;34.75;16.75;;;;;;;;;;4860436;29;20443;-81
2021/12/01 00:37:54;;;;;;;27.65;14.98;;;;;;;;;;4860837;29;20404;-81
2021/12/01 00:40:21;;;;;;;32.05;15.32;;;;;;;;;;4860783;29;20090;-80
2021/12/01 00:42:47;;;;;;;33.33;16.25;;;;;;;;;;4859793;29;20052;-81
2021/12/01 00:45:18;;;;;;;28.17;15.05;;;;;;;;;;4859634;29;20458;-81
2021/12/01 00:47:50;;;;;;;30.95;15.68;;;;;;;;;;4860888;29;20388;-82
2021/12/01 00:50:19;;;;;;;34.40;15.95;;;;;;;;;;4852119;29;20046;-80
2021/12/01 00:52:46;;;;;;;33.30;16.80;;;;;;;;;;4857627;29;20435;-82
2021/12/01 00:55:12;;;;;;;38.20;17.95;;;;;;;;;;4857575;29;20088;-83
2021/12/01 00:57:38;;;;;;;36.45;17.52;;;;;;;;;;4870960;29;21686;-82
2021/12/01 01:00:06;;;;;;;37.20;17.80;;;;;;;;;;4859744;29;20052;-80
2021/12/01 01:02:33;;;;;;;36.88;17.92;;;;;;;;;;4860561;29;20413;-81
2021/12/01 01:04:59;;;;;;;37.10;18.23;;;;;;;;;;4860348;29;20045;-81
2021/12/01 01:07:26;;;;;;;36.67;18.60;;;;;;;;;;4860170;29;20049;-81
2021/12/01 01:09:52;;;;;;;39.65;18.70;;;;;;;;;;4860249;29;20087;-82
2021/12/01 01:18:02;;;;;;;34.75;16.58;;;;;;;;;;4879046;29;20049;-83
2021/12/01 01:20:28;;;;;;;28.27;14.65;;;;;;;;;;4863263;29;20114;-81
2021/12/01 01:22:54;;;;;;;33.33;16.50;;;;;;;;;;4862812;29;20037;-81
2021/12/01 01:25:20;;;;;;;31.33;15.38;;;;;;;;;;4864056;29;20093;-80
2021/12/01 01:27:46;;;;;;;31.60;14.98;;;;;;;;;;4862037;29;20100;-82
2021/12/01 01:30:12;;;;;;;26.20;14.45;;;;;;;;;;4863179;29;20363;-80
2021/12/01 01:32:39;;;;;;;23.58;13.45;;;;;;;;;;4848110;29;20057;-81
2021/12/01 01:35:06;;;;;;;22.55;13.45;;;;;;;;;;4848420;29;20131;-80
2021/12/01 01:37:32;;;;;;;24.17;12.98;;;;;;;;;;4862776;29;20361;-82
2021/12/01 01:39:58;;;;;;;28.42;11.20;;;;;;;;;;4863728;29;20081;-81
2021/12/01 01:42:25;;;;;;;27.25;11.75;;;;;;;;;;4863369;29;20127;-82
2021/12/01 01:44:51;;;;;;;23.58;10.90;;;;;;;;;;4863497;29;20045;-81
2021/12/01 01:47:17;;;;;;;31.08;11.48;;;;;;;;;;4863389;29;20046;-80
2021/12/01 01:49:55;;;;;;;22.33;10.82;;;;;;;;;;4863190;29;20109;-80
2021/12/01 01:52:22;;;;;;;18.85;10.18;;;;;;;;;;4862827;29;20054;-81
2021/12/01 01:54:48;;;;;;;19.83;9.05;;;;;;;;;;4847954;29;20140;-82
2021/12/01 01:57:14;;;;;;;20.98;9.10;;;;;;;;;;4859130;29;20052;-82
2021/12/01 01:59:40;;;;;;;20.17;8.50;;;;;;;;;;4847494;29;20458;-82
2021/12/01 02:02:07;;;;;;;15.13;8.07;;;;;;;;;;4847484;29;20169;-83
2021/12/01 02:04:34;;;;;;;18.90;7.78;;;;;;;;;;4846962;29;20053;-79
2021/12/01 02:07:01;;;;;;;17.98;8.02;;;;;;;;;;4862476;29;20045;-81
2021/12/01 02:09:27;;;;;;;19.20;6.70;;;;;;;;;;4862440;29;20374;-79
2021/12/01 02:11:55;;;;;;;21.42;7.22;;;;;;;;;;4868769;29;20029;-81
2021/12/01 02:14:22;;;;;;;17.35;6.80;;;;;;;;;;4859040;29;20037;-81
2021/12/01 02:16:48;;;;;;;13.93;6.38;;;;;;;;;;4856310;29;20098;-80
2021/12/01 02:19:15;;;;;;;16.83;6.28;;;;;;;;;;4877222;29;20080;-80
2021/12/01 02:21:41;;;;;;;16.98;6.40;;;;;;;;;;4862025;29;20105;-80
2021/12/01 02:24:12;;;;;;;14.88;6.25;;;;;;;;;;4862852;29;20041;-80
2021/12/01 02:26:49;;;;;;;16.75;5.95;;;;;;;;;;4862069;29;20045;-80
2021/12/01 02:29:17;;;;;;;15.52;5.80;;;;;;;;;;4846258;29;20069;-80
2021/12/01 02:31:44;;;;;;;12.27;5.00;;;;;;;;;;4861917;29;20085;-80
2021/12/01 02:34:11;;;;;;;12.10;3.97;;;;;;;;;;4847473;29;20449;-82
2021/12/01 02:36:37;;;;;;;12.00;3.60;;;;;;;;;;4847360;29;20046;-81
2021/12/01 02:39:05;;;;;;;12.30;4.07;;;;;;;;;;4862273;29;20113;-82
2021/12/01 02:41:33;;;;;;;10.50;3.65;;;;;;;;;;4862310;29;20093;-81
2021/12/01 02:44:00;;;;;;;10.18;3.75;;;;;;;;;;4846650;29;20048;-83
2021/12/01 02:46:27;;;;;;;9.52;3.22;;;;;;;;;;4846134;29;20057;-81
2021/12/01 02:48:53;;;;;;;7.72;3.58;;;;;;;;;;4862016;29;20049;-81
2021/12/01 02:51:24;;;;;;;9.07;3.03;;;;;;;;;;4861946;29;20350;-81
2021/12/01 02:53:50;;;;;;;12.90;2.90;;;;;;;;;;4862353;29;20045;-83
2021/12/01 02:56:17;;;;;;;13.18;3.53;;;;;;;;;;4863084;29;20454;-83
2021/12/01 02:58:44;;;;;;;11.45;3.28;;;;;;;;;;4846582;29;20045;-80
2021/12/01 03:01:15;;;;;;;13.98;3.00;;;;;;;;;;4846315;29;20057;-81
2021/12/01 03:03:41;;;;;;;10.93;3.47;;;;;;;;;;4862216;29;20044;-81
2021/12/01 03:06:08;;;;;;;15.57;3.75;;;;;;;;;;4861620;29;20081;-83
2021/12/01 03:08:35;;;;;;;9.65;3.20;;;;;;;;;;4846567;29;20048;-82
2021/12/01 03:11:01;;;;;;;11.90;3.28;;;;;;;;;;4861620;29;20105;-82
2021/12/01 03:13:27;;;;;;;13.27;3.75;;;;;;;;;;4879414;29;20461;-81
2021/12/01 03:15:54;;;;;;;17.70;3.38;;;;;;;;;;4863362;29;20113;-80
2021/12/01 03:18:21;;;;;;;12.13;3.65;;;;;;;;;;4861563;29;20052;-83
2021/12/01 03:20:48;;;;;;;9.77;3.17;;;;;;;;;;4861162;29;20519;-81
2021/12/01 03:23:17;;;;;;;12.45;3.22;;;;;;;;;;4861674;29;20037;-80
2021/12/01 03:25:43;;;;;;;12.38;3.35;;;;;;;;;;4845811;29;20046;-81
2021/12/01 03:28:10;;;;;;;16.75;3.83;;;;;;;;;;4861257;29;20049;-81
2021/12/01 03:30:37;;;;;;;14.98;3.80;;;;;;;;;;4861022;29;20060;-80
2021/12/01 03:33:05;;;;;;;12.25;3.47;;;;;;;;;;4861174;29;20045;-81
2021/12/01 03:35:31;;;;;;;13.13;3.53;;;;;;;;;;4861638;29;20046;-81
2021/12/01 03:37:58;;;;;;;13.88;3.45;;;;;;;;;;4861390;29;20485;-81
2021/12/01 03:40:24;;;;;;;12.10;3.50;;;;;;;;;;4860320;29;20045;-81
2021/12/01 03:42:50;;;;;;;9.73;2.92;;;;;;;;;;4844348;29;20069;-83
2021/12/01 03:45:17;;;;;;;16.20;3.08;;;;;;;;;;4844458;29;20049;-81
2021/12/01 03:47:43;;;;;;;12.45;3.85;;;;;;;;;;4874346;29;20037;-82
2021/12/01 03:50:10;;;;;;;13.52;3.40;;;;;;;;;;4860389;29;20140;-81
2021/12/01 03:52:37;;;;;;;10.70;3.10;;;;;;;;;;4845671;29;20037;-80
2021/12/01 03:55:04;;;;;;;11.07;3.20;;;;;;;;;;4845422;29;20088;-84
2021/12/01 03:57:30;;;;;;;17.40;3.45;;;;;;;;;;4860185;29;20047;-82
2021/12/01 03:59:57;;;;;;;15.02;3.70;;;;;;;;;;4861204;29;20376;-82
2021/12/01 04:02:24;;;;;;;16.48;3.80;;;;;;;;;;4845758;29;20045;-82
2021/12/01 04:04:50;;;;;;;19.42;4.10;;;;;;;;;;4845759;29;20101;-79
2021/12/01 04:07:16;;;;;;;13.15;4.00;;;;;;;;;;4845053;29;20140;-79
2021/12/01 04:09:44;;;;;;;15.98;3.95;;;;;;;;;;4845792;29;20085;-80
2021/12/01 04:12:10;;;;;;;20.52;4.30;;;;;;;;;;4868407;29;20109;-78
2021/12/01 04:14:36;;;;;;;10.32;3.30;;;;;;;;;;4873328;29;20084;-78
2021/12/01 04:17:02;;;;;;;18.88;4.60;;;;;;;;;;4861466;29;20057;-78
2021/12/01 04:19:28;;;;;;;19.55;3.92;;;;;;;;;;4861105;29;20132;-78
2021/12/01 04:21:54;;;;;;;17.23;4.15;;;;;;;;;;4861525;29;20140;-77
2021/12/01 04:24:21;;;;;;;21.27;4.32;;;;;;;;;;4861334;29;20477;-78
2021/12/01 04:26:48;;;;;;;25.88;4.40;;;;;;;;;;4859455;29;20057;-76
2021/12/01 04:29:14;;;;;;;17.75;3.90;;;;;;;;;;4860960;29;20056;-78
2021/12/01 04:31:40;;;;;;;20.85;4.38;;;;;;;;;;4860734;29;20471;-75
2021/12/01 04:34:06;;;;;;;16.45;4.20;;;;;;;;;;4860720;29;20049;-76
2021/12/01 04:36:35;;;;;;;16.77;4.10;;;;;;;;;;4850106;29;20193;-77
2021/12/01 04:39:03;;;;;;;16.40;4.13;;;;;;;;;;4825014;29;20046;-79
2021/12/01 04:41:36;;;;;;;16.98;3.83;;;;;;;;;;4842085;29;20091;-76
2021/12/01 04:44:08;;;;;;;13.93;3.58;;;;;;;;;;4858022;29;20246;-78
2021/12/01 04:46:40;;;;;;;13.13;3.53;;;;;;;;;;4861535;29;20045;-77
2021/12/01 04:49:07;;;;;;;17.65;3.75;;;;;;;;;;4860719;29;20057;-75
2021/12/01 04:51:33;;;;;;;15.02;4.10;;;;;;;;;;4858813;29;20194;-75
2021/12/01 04:53:59;;;;;;;13.98;3.47;;;;;;;;;;4864276;29;20046;-76
2021/12/01 04:56:25;;;;;;;9.32;3.33;;;;;;;;;;4850877;29;20041;-76
2021/12/01 04:58:51;;;;;;;6.28;2.50;;;;;;;;;;4846141;29;20064;-77
2021/12/01 05:01:18;;;;;;;7.88;2.70;;;;;;;;;;4862308;29;20096;-77
2021/12/01 05:03:44;;;;;;;7.45;2.95;;;;;;;;;;4864471;29;20120;-76
2021/12/01 05:06:12;;;;;;;11.15;2.80;;;;;;;;;;4863842;29;20165;-75
2021/12/01 05:08:39;;;;;;;7.45;3.05;;;;;;;;;;4864179;29;20049;-75
2021/12/01 05:11:05;;;;;;;8.45;2.50;;;;;;;;;;4849195;29;20058;-74
2021/12/01 05:13:31;;;;;;;7.63;3.20;;;;;;;;;;4858303;29;20050;-77
2021/12/01 05:15:58;;;;;;;4.88;2.30;;;;;;;;;;4860761;29;20061;-75
2021/12/01 05:18:24;;;;;;;4.53;2.13;;;;;;;;;;4865062;29;20041;-76
2021/12/01 05:20:50;;;;;;;5.93;2.20;;;;;;;;;;4847702;29;20094;-76
2021/12/01 05:23:16;;;;;;;3.95;2.03;;;;;;;;;;4845465;29;20117;-78
2021/12/01 05:25:43;;;;;;;5.55;2.08;;;;;;;;;;4853565;29;20061;-79
2021/12/01 05:28:09;;;;;;;3.25;1.90;;;;;;;;;;4848326;29;20053;-79
2021/12/01 05:30:36;;;;;;;2.70;1.40;;;;;;;;;;4863476;29;20045;-80
2021/12/01 05:33:07;;;;;;;2.70;1.48;;;;;;;;;;4863337;29;20041;-79
2021/12/01 05:35:34;;;;;;;1.77;1.58;;;;;;;;;;4847875;29;20105;-81
2021/12/01 05:38:00;;;;;;;32.00;20.35;;;;;;;;;;4863253;29;20072;-80
2021/12/01 05:40:26;;;;;;;2.03;1.55;;;;;;;;;;4848878;29;20056;-81
2021/12/01 05:42:52;;;;;;;2.13;1.23;;;;;;;;;;4844872;29;20057;-82
2021/12/01 05:45:19;;;;;;;1.63;1.30;;;;;;;;;;4826633;29;20046;-82
2021/12/01 05:47:45;;;;;;;1.88;1.20;;;;;;;;;;4841756;29;20089;-81
2021/12/01 05:50:11;;;;;;;1.15;1.05;;;;;;;;;;4843882;29;20475;-78
2021/12/01 05:52:38;;;;;;;1.67;1.13;;;;;;;;;;4844553;29;20057;-78
2021/12/01 05:55:05;;;;;;;1.25;1.13;;;;;;;;;;4831931;29;20045;-78
2021/12/01 05:57:31;;;;;;;1.75;1.10;;;;;;;;;;4863105;29;20171;-80
2021/12/01 05:59:59;;;;;;;1.60;1.20;;;;;;;;;;4863380;29;20444;-78
2021/12/01 06:02:26;;;;;;;2.15;1.30;;;;;;;;;;4862818;29;20054;-78
2021/12/01 06:04:52;;;;;;;2.00;1.40;;;;;;;;;;4841483;29;20277;-78
2021/12/01 06:07:18;;;;;;;2.00;1.33;;;;;;;;;;4844916;29;20054;-78
2021/12/01 06:09:44;;;;;;;1.70;1.27;;;;;;;;;;4844106;29;20110;-76
2021/12/01 06:12:14;;;;;;;1.50;1.40;;;;;;;;;;4853396;29;20323;-76
2021/12/01 06:14:41;;;;;;;2.30;1.80;;;;;;;;;;4863113;29;20053;-76
2021/12/01 06:17:11;;;;;;;2.20;2.00;;;;;;;;;;4857022;29;20145;-77
2021/12/01 06:19:38;;;;;;;2.00;1.60;;;;;;;;;;4872051;29;20058;-80
2021/12/01 06:22:04;;;;;;;1.60;1.50;;;;;;;;;;4844191;29;20133;-78
2021/12/01 06:24:31;;;;;;;1.92;1.73;;;;;;;;;;4844221;29;20109;-81
2021/12/01 06:26:57;;;;;;;2.35;1.80;;;;;;;;;;4858602;29;20556;-80
2021/12/01 06:29:23;;;;;;;2.83;2.30;;;;;;;;;;4862726;29;20057;-79
2021/12/01 06:31:49;;;;;;;3.53;2.88;;;;;;;;;;4857646;29;20098;-81
2021/12/01 06:34:15;;;;;;;3.38;2.72;;;;;;;;;;4829066;29;20343;-83
2021/12/01 06:36:42;;;;;;;3.47;2.90;;;;;;;;;;4845995;29;20057;-82
2021/12/01 06:39:08;;;;;;;3.50;2.92;;;;;;;;;;4845447;29;20066;-83
2021/12/01 06:41:35;;;;;;;6.65;2.80;;;;;;;;;;4845435;29;20125;-83
2021/12/01 06:44:01;;;;;;;6.15;2.97;;;;;;;;;;4846094;29;20168;-82
2021/12/01 06:46:28;;;;;;;5.32;3.08;;;;;;;;;;4864158;29;20096;-83
2021/12/01 06:48:55;;;;;;;4.60;3.10;;;;;;;;;;4864390;29;20108;-81
2021/12/01 06:51:21;;;;;;;9.15;3.13;;;;;;;;;;4864143;29;20157;-81
2021/12/01 06:53:47;;;;;;;4.38;2.45;;;;;;;;;;4864533;29;20162;-83
2021/12/01 06:56:15;;;;;;;7.18;2.60;;;;;;;;;;4852020;29;20084;-83
2021/12/01 06:58:41;;;;;;;6.25;2.60;;;;;;;;;;4833274;29;20045;-83
2021/12/01 07:01:07;;;;;;;6.90;3.28;;;;;;;;;;4856887;29;20144;-82
2021/12/01 07:03:42;;;;;;;8.07;3.33;;;;;;;;;;4830287;29;20053;-85
2021/12/01 07:06:08;;;;;;;5.40;3.33;;;;;;;;;;4829981;29;20150;-83
2021/12/01 07:08:36;;;;;;;7.15;3.47;;;;;;;;;;4827481;29;20054;-82
2021/12/01 07:11:02;;;;;;;7.68;3.78;;;;;;;;;;4840683;29;20046;-82
2021/12/01 07:13:33;;;;;;;6.00;3.55;;;;;;;;;;4846240;29;20134;-82
2021/12/01 07:16:00;;;;;;;6.38;4.00;;;;;;;;;;4839979;29;20154;-81
2021/12/01 07:18:26;;;;;;;9.45;4.30;;;;;;;;;;4846560;29;20128;-76
2021/12/01 07:20:52;;;;;;;9.77;4.18;;;;;;;;;;4845001;29;20089;-75
2021/12/01 07:23:18;;;;;;;10.88;3.90;;;;;;;;;;4844237;29;20060;-75
2021/12/01 07:25:44;;;;;;;8.73;3.80;;;;;;;;;;4843373;29;20387;-78
2021/12/01 07:28:10;;;;;;;8.80;3.50;;;;;;;;;;4843593;29;20053;-78
2021/12/01 07:30:39;;;;;;;14.80;3.80;;;;;;;;;;4858576;29;20132;-77
2021/12/01 07:33:06;;;;;;;8.70;2.92;;;;;;;;;;4862172;29;20156;-78
2021/12/01 07:35:32;;;;;;;14.43;3.40;;;;;;;;;;4845842;29;20136;-77
2021/12/01 07:37:58;;;;;;;12.32;3.20;;;;;;;;;;4862284;29;20059;-76
2021/12/01 07:40:24;;;;;;;10.98;3.63;;;;;;;;;;4861852;29;20067;-76
2021/12/01 07:42:51;;;;;;;12.20;3.40;;;;;;;;;;4860930;29;20447;-81
2021/12/01 07:45:17;;;;;;;17.38;3.40;;;;;;;;;;4860851;29;20045;-79
2021/12/01 07:47:43;;;;;;;17.02;3.72;;;;;;;;;;4845147;29;20472;-77
2021/12/01 07:50:10;;;;;;;12.50;3.50;;;;;;;;;;4846466;29;20049;-81
2021/12/01 07:52:38;;;;;;;10.32;3.28;;;;;;;;;;4842939;29;20053;-81
2021/12/01 07:55:04;;;;;;;14.00;3.67;;;;;;;;;;4841927;29;20126;-78
2021/12/01 07:57:31;;;;;;;13.55;3.58;;;;;;;;;;4846079;29;20069;-77
2021/12/01 07:59:57;;;;;;;11.38;3.00;;;;;;;;;;4842913;29;20115;-77
2021/12/01 08:02:23;;;;;;;8.68;2.70;;;;;;;;;;4842720;29;20081;-79
2021/12/01 08:04:49;;;;;;;8.77;2.78;;;;;;;;;;4842361;29;20105;-77
2021/12/01 08:07:15;;;;;;;10.70;2.92;;;;;;;;;;4822928;29;20367;-77
2021/12/01 08:09:41;;;;;;;13.77;3.20;;;;;;;;;;4840637;29;20065;-80
2021/12/01 08:12:11;;;;;;;12.98;3.58;;;;;;;;;;4839075;29;20085;-81
2021/12/01 08:14:37;;;;;;;16.02;3.13;;;;;;;;;;4826782;29;20050;-78
2021/12/01 08:19:58;;;;;;;14.32;3.50;;;;;;;;;;4836417;29;20042;-85
2021/12/01 08:22:28;;;;;;;16.48;3.72;;;;;;;;;;4826813;29;20378;-84
2021/12/01 08:25:06;;;;;;;10.55;2.95;;;;;;;;;;4827066;29;20050;-85
2021/12/01 08:27:38;;;;;;;14.98;3.20;;;;;;;;;;4829226;29;20364;-84
2021/12/01 08:30:19;;;;;;;11.98;3.05;;;;;;;;;;4830515;29;20432;-82
2021/12/01 08:33:11;;;;;;;12.38;3.25;;;;;;;;;;4846933;29;20053;-87
2021/12/01 08:36:00;;;;;;;14.50;3.80;;;;;;;;;;4848477;29;20495;-86
2021/12/01 08:38:29;;;;;;;10.75;2.63;;;;;;;;;;4842574;29;20045;-81
2021/12/01 08:40:55;;;;;;;10.30;3.45;;;;;;;;;;4830544;29;20088;-84
2021/12/01 08:43:21;;;;;;;13.35;3.10;;;;;;;;;;4846017;29;20507;-84
2021/12/01 08:45:52;;;;;;;11.05;3.10;;;;;;;;;;4846274;29;20034;-85
2021/12/01 08:48:19;;;;;;;14.43;3.00;;;;;;;;;;4845632;29;20073;-82
2021/12/01 08:51:09;;;;;;;9.68;3.22;;;;;;;;;;4830637;29;20042;-86
2021/12/01 08:53:41;;;;;;;11.68;3.40;;;;;;;;;;4840080;29;20097;-81
2021/12/01 08:56:07;;;;;;;10.75;2.78;;;;;;;;;;4830644;29;20041;-82
2021/12/01 08:58:33;;;;;;;14.10;3.22;;;;;;;;;;4830283;29;20049;-80
2021/12/01 09:01:11;;;;;;;11.52;3.85;;;;;;;;;;4837641;29;20054;-85
2021/12/01 09:03:37;;;;;;;14.13;3.40;;;;;;;;;;4820240;29;20073;-80
2021/12/01 09:06:27;;;;;;;10.35;3.13;;;;;;;;;;4845624;29;20046;-83
2021/12/01 09:15:58;;;;;;;9.50;2.90;;;;;;;;;;4751780;30;20039;-84
2021/12/01 09:18:34;;;;;;;8.43;2.58;;;;;;;;;;4739155;30;20048;-85
2021/12/01 09:28:02;;;;;;;14.60;3.60;;;;;;;;;;4736424;30;20123;-83
2021/12/01 09:56:33;;;;;;;15.63;3.45;;;;;;;;;;4788108;30;20077;-83
2021/12/01 09:59:12;;;;;;;15.63;4.07;;;;;;;;;;4773726;30;20050;-83
2021/12/01 10:02:01;;;;;;;17.40;4.68;;;;;;;;;;4830886;29;20198;-82
2021/12/01 10:05:02;;;;;;;13.15;4.13;;;;;;;;;;4862265;29;20110;-82
2021/12/01 10:08:01;;;;;;;17.15;3.75;;;;;;;;;;4831448;29;20045;-80
2021/12/01 10:10:30;;;;;;;14.73;3.47;;;;;;;;;;4826542;29;20057;-81
2021/12/01 10:13:25;;;;;;;;;;;;;;;;;;;;;
2021/12/01 10:16:14;;;;;;;9.35;3.10;;;;;;;;;;4848182;29;20080;-82
2021/12/01 14:30:35;;;;;;;15.73;4.10;;;;;;;;;;4650457;30;20062;-79
2021/12/01 14:33:01;;;;;;;18.17;3.67;;;;;;;;;;4664161;30;20071;-78
2021/12/01 14:35:27;;;;;;;13.02;3.50;;;;;;;;;;4650271;30;20121;-79
2021/12/01 14:37:56;;;;;;;13.82;3.97;;;;;;;;;;4650071;30;20058;-76
2021/12/01 14:40:22;;;;;;;15.63;4.00;;;;;;;;;;4650701;30;20059;-79
2021/12/01 14:42:48;;;;;;;11.73;4.38;;;;;;;;;;4650483;30;20050;-79
2021/12/01 14:45:50;;;;;;;12.40;3.35;;;;;;;;;;4649920;30;20058;-78
2021/12/01 14:48:17;;;;;;;11.82;3.65;;;;;;;;;;4662503;30;20054;-78
2021/12/01 14:50:54;;;;;;;13.90;3.42;;;;;;;;;;4664031;30;20381;-81
2021/12/01 14:53:59;;;;;;;11.48;3.17;;;;;;;;;;4649480;30;20196;-80
2021/12/01 14:56:52;;;;;;;18.58;4.15;;;;;;;;;;4648961;30;20133;-83
2021/12/01 14:59:18;;;;;;;14.88;3.50;;;;;;;;;;4648883;30;20098;-76
2021/12/01 15:02:05;;;;;;;18.10;3.42;;;;;;;;;;4674531;30;20050;-83
2021/12/01 15:08:08;;;;;;;14.18;3.80;;;;;;;;;;4667094;30;20104;-80
2021/12/01 15:10:49;;;;;;;14.15;3.30;;;;;;;;;;4667150;30;20149;-81
2021/12/01 15:13:20;;;;;;;10.90;3.40;;;;;;;;;;4652599;30;20053;-81
2021/12/01 15:15:52;;;;;;;18.35;3.63;;;;;;;;;;4648751;30;20149;-78
2021/12/01 15:18:26;;;;;;;10.52;3.50;;;;;;;;;;4655802;30;20051;-79
2021/12/01 15:20:56;;;;;;;13.63;4.15;;;;;;;;;;4649158;30;20122;-79
2021/12/01 15:23:22;;;;;;;16.58;3.20;;;;;;;;;;4649207;30;20480;-79
2021/12/01 15:25:49;;;;;;;17.40;3.65;;;;;;;;;;4648696;30;20047;-80
2021/12/01 15:28:15;;;;;;;20.85;4.35;;;;;;;;;;4648177;30;20047;-80
2021/12/01 15:30:49;;;;;;;15.30;3.80;;;;;;;;;;4650697;30;20139;-80
2021/12/01 15:33:19;;;;;;;10.40;3.50;;;;;;;;;;4649205;30;20051;-80
2021/12/01 15:35:46;;;;;;;16.35;3.92;;;;;;;;;;4648189;30;20105;-79
2021/12/01 15:38:13;;;;;;;14.55;3.47;;;;;;;;;;4648909;30;20362;-81
2021/12/01 15:40:39;;;;;;;12.07;3.40;;;;;;;;;;4649303;30;20047;-80
2021/12/01 15:43:05;;;;;;;18.73;4.00;;;;;;;;;;4647093;30;20043;-80
2021/12/01 15:45:34;;;;;;;15.07;3.67;;;;;;;;;;4645924;30;20043;-81
2021/12/01 15:48:01;;;;;;;13.52;3.33;;;;;;;;;;4646200;30;20117;-79
2021/12/01 15:50:27;;;;;;;18.83;4.03;;;;;;;;;;4647783;30;20058;-79
2021/12/01 15:55:56;;;;;;;12.05;3.05;;;;;;;;;;4648367;30;20071;-78
2021/12/01 15:58:24;;;;;;;9.40;3.13;;;;;;;;;;4662616;30;20109;-79
2021/12/01 16:00:56;;;;;;;11.73;3.13;;;;;;;;;;4648564;30;20139;-77
2021/12/01 16:03:22;;;;;;;9.23;2.67;;;;;;;;;;4649857;30;20125;-78
2021/12/01 16:06:00;;;;;;;11.95;3.80;;;;;;;;;;4649092;30;20138;-79
2021/12/01 16:25:38;;;;;;;8.10;2.63;;;;;;;;;;4742569;24;20073;-80
2021/12/01 16:28:04;;;;;;;15.27;2.85;;;;;;;;;;4682921;30;20057;-80
2021/12/01 16:30:33;;;;;;;12.43;2.70;;;;;;;;;;4687560;30;20053;-78
2021/12/01 16:33:00;;;;;;;14.95;2.88;;;;;;;;;;4697531;30;20111;-79
2021/12/01 16:35:28;;;;;;;13.80;3.80;;;;;;;;;;4687382;30;20085;-78
2021/12/01 16:37:55;;;;;;;11.63;3.92;;;;;;;;;;4687244;30;20054;-78
2021/12/01 16:40:25;;;;;;;11.10;2.67;;;;;;;;;;4699832;30;20065;-79
2021/12/01 16:43:27;;;;;;;7.32;2.65;;;;;;;;;;4699431;30;20053;-78
2021/12/01 16:45:54;;;;;;;15.25;2.90;;;;;;;;;;4699091;30;20439;-80
2021/12/01 16:48:20;;;;;;;7.55;2.15;;;;;;;;;;4698782;30;20061;-76
2021/12/01 16:50:46;;;;;;;9.13;2.15;;;;;;;;;;4714843;30;20096;-75
2021/12/01 16:53:12;;;;;;;8.68;2.45;;;;;;;;;;4694166;30;20092;-77
2021/12/01 16:55:39;;;;;;;11.07;2.70;;;;;;;;;;4703106;30;20105;-78
2021/12/01 16:58:06;;;;;;;12.38;2.85;;;;;;;;;;4702570;30;20060;-77
2021/12/01 17:00:41;;;;;;;11.75;2.83;;;;;;;;;;4703273;30;20151;-78
2021/12/01 17:03:10;;;;;;;3.83;1.80;;;;;;;;;;4700371;30;20068;-78
2021/12/01 17:05:41;;;;;;;9.25;2.42;;;;;;;;;;4702774;30;20049;-77
2021/12/01 17:10:42;;;;;;;10.15;3.03;;;;;;;;;;4719725;30;20060;-79
2021/12/01 17:13:10;;;;;;;15.77;3.30;;;;;;;;;;4704058;30;20053;-78
2021/12/01 17:15:39;;;;;;;7.88;2.50;;;;;;;;;;4722541;30;20052;-80
2021/12/01 17:18:05;;;;;;;8.77;2.70;;;;;;;;;;4721905;30;20131;-79
2021/12/01 17:20:31;;;;;;;11.20;2.90;;;;;;;;;;4715126;30;20077;-78
2021/12/01 17:22:57;;;;;;;9.80;2.45;;;;;;;;;;4704285;30;20120;-74
2021/12/01 17:25:26;;;;;;;5.13;2.10;;;;;;;;;;4701659;30;20140;-76
2021/12/01 17:27:52;;;;;;;8.70;2.40;;;;;;;;;;4688114;30;20073;-76
2021/12/01 17:30:30;;;;;;;12.48;2.85;;;;;;;;;;4718720;30;20167;-74
2021/12/01 17:32:58;;;;;;;16.70;2.75;;;;;;;;;;4718779;30;20072;-77
2021/12/01 17:35:28;;;;;;;9.57;3.33;;;;;;;;;;4704559;30;20561;-77
2021/12/01 17:37:56;;;;;;;7.32;3.13;;;;;;;;;;4703967;30;20061;-78
2021/12/01 17:40:22;;;;;;;10.25;2.50;;;;;;;;;;4703678;30;20526;-76
2021/12/01 17:42:49;;;;;;;8.55;2.60;;;;;;;;;;4702511;30;20518;-79
2021/12/01 17:45:15;;;;;;;7.95;2.50;;;;;;;;;;4713911;30;20050;-79
2021/12/01 17:47:42;;;;;;;11.80;2.65;;;;;;;;;;4713847;30;20498;-79
2021/12/01 17:50:09;;;;;;;8.07;2.50;;;;;;;;;;4714105;30;20081;-78
2021/12/01 17:52:36;;;;;;;9.07;2.58;;;;;;;;;;4716132;30;20463;-78
2021/12/01 17:55:03;;;;;;;11.25;2.58;;;;;;;;;;4699680;30;20402;-78
2021/12/01 17:57:29;;;;;;;10.45;2.90;;;;;;;;;;4713315;30;20063;-78
2021/12/01 17:59:59;;;;;;;14.02;3.28;;;;;;;;;;4702741;30;20054;-79
2021/12/01 18:02:30;;;;;;;9.05;2.45;;;;;;;;;;4701508;30;20132;-77
2021/12/01 18:04:56;;;;;;;8.75;2.70;;;;;;;;;;4699093;30;20440;-78
2021/12/01 18:07:23;;;;;;;12.75;2.75;;;;;;;;;;4692300;30;20046;-79
2021/12/01 18:09:49;;;;;;;15.32;2.88;;;;;;;;;;4698485;30;20050;-80
2021/12/01 18:12:18;;;;;;;7.88;2.45;;;;;;;;;;4721679;30;20390;-75
2021/12/01 18:14:44;;;;;;;8.95;2.25;;;;;;;;;;4700904;30;20128;-76
2021/12/01 18:17:11;;;;;;;8.00;2.40;;;;;;;;;;4698607;30;20054;-75
2021/12/01 18:19:37;;;;;;;8.20;2.58;;;;;;;;;;4713385;30;20070;-75
2021/12/01 18:22:04;;;;;;;10.60;3.40;;;;;;;;;;4716149;30;20068;-73
2021/12/01 18:24:30;;;;;;;12.45;2.63;;;;;;;;;;4702076;30;20062;-76
2021/12/01 18:26:56;;;;;;;7.50;2.58;;;;;;;;;;4702455;30;20437;-77
2021/12/01 18:29:22;;;;;;;9.63;2.35;;;;;;;;;;4693038;30;20090;-79
2021/12/01 18:31:48;;;;;;;12.55;3.35;;;;;;;;;;4701248;30;20080;-78
2021/12/01 18:34:15;;;;;;;8.10;2.60;;;;;;;;;;4701585;30;20060;-77
2021/12/01 18:36:41;;;;;;;7.60;2.95;;;;;;;;;;4701044;30;20138;-78
2021/12/01 18:39:09;;;;;;;11.05;2.80;;;;;;;;;;4701303;30;20054;-77
2021/12/01 18:41:37;;;;;;;12.20;2.90;;;;;;;;;;4708660;30;20471;-78
2021/12/01 18:44:03;;;;;;;7.22;2.00;;;;;;;;;;4701213;30;20056;-76
2021/12/01 18:46:29;;;;;;;6.68;2.00;;;;;;;;;;4701046;30;20087;-76
2021/12/01 18:48:56;;;;;;;8.18;2.20;;;;;;;;;;4700993;30;20065;-78
2021/12/01 18:51:22;;;;;;;6.70;2.00;;;;;;;;;;4698580;30;20053;-76
2021/12/01 18:53:49;;;;;;;6.43;2.63;;;;;;;;;;4689945;30;20069;-78
2021/12/01 18:56:16;;;;;;;11.57;2.90;;;;;;;;;;4700822;30;20054;-76
2021/12/01 18:58:43;;;;;;;9.23;2.47;;;;;;;;;;4702210;30;20068;-78
2021/12/01 19:01:10;;;;;;;14.35;3.22;;;;;;;;;;4701843;30;20057;-78
2021/12/01 19:03:37;;;;;;;10.02;2.25;;;;;;;;;;4699653;30;20057;-79
2021/12/01 19:06:04;;;;;;;10.38;2.72;;;;;;;;;;4698694;30;20053;-79
2021/12/01 19:08:35;;;;;;;9.02;2.55;;;;;;;;;;4698177;30;20087;-78
2021/12/01 19:11:01;;;;;;;7.07;2.53;;;;;;;;;;4701026;30;20064;-78
2021/12/01 19:13:27;;;;;;;5.05;1.90;;;;;;;;;;4706643;30;20458;-78
2021/12/01 19:15:55;;;;;;;10.57;2.38;;;;;;;;;;4697434;30;20555;-78
2021/12/01 19:18:21;;;;;;;10.32;2.65;;;;;;;;;;4699383;30;20062;-79
2021/12/01 19:20:48;;;;;;;9.27;3.38;;;;;;;;;;4714210;30;20048;-81
2021/12/01 19:23:14;;;;;;;12.25;2.55;;;;;;;;;;4695702;30;20077;-79
2021/12/01 19:25:40;;;;;;;9.02;2.92;;;;;;;;;;4698677;30;20489;-78
2021/12/01 19:28:06;;;;;;;12.90;3.45;;;;;;;;;;4697991;30;20494;-77
2021/12/01 19:30:33;;;;;;;9.57;2.63;;;;;;;;;;4696844;30;20069;-79
2021/12/01 19:32:59;;;;;;;6.90;2.45;;;;;;;;;;4696657;30;20077;-79
2021/12/01 19:35:33;;;;;;;10.23;2.63;;;;;;;;;;4696728;30;20464;-78
2021/12/01 19:37:59;;;;;;;9.88;2.72;;;;;;;;;;4711884;30;20058;-78
2021/12/01 19:40:27;;;;;;;8.57;2.30;;;;;;;;;;4699504;30;20077;-80
2021/12/01 19:42:58;;;;;;;13.25;2.70;;;;;;;;;;4700243;30;20055;-80
2021/12/01 19:45:28;;;;;;;8.80;2.45;;;;;;;;;;4700130;30;20041;-78
2021/12/01 19:47:55;;;;;;;7.95;2.92;;;;;;;;;;4692212;30;20046;-78
2021/12/01 19:50:21;;;;;;;10.82;2.70;;;;;;;;;;4698897;30;20064;-79
2021/12/01 19:52:55;;;;;;;15.30;3.47;;;;;;;;;;4701332;30;20103;-79
2021/12/01 19:55:24;;;;;;;11.48;3.03;;;;;;;;;;4701213;30;20092;-79
2021/12/01 19:57:56;;;;;;;9.82;3.08;;;;;;;;;;4697070;30;20433;-78
2021/12/01 20:00:32;;;;;;;11.50;3.13;;;;;;;;;;4699623;30;20061;-78
2021/12/01 20:03:05;;;;;;;9.50;2.75;;;;;;;;;;4700259;30;20463;-78
2021/12/01 20:05:32;;;;;;;8.25;2.50;;;;;;;;;;4700590;30;20471;-73
2021/12/01 20:07:59;;;;;;;10.50;3.05;;;;;;;;;;4701309;30;20107;-73